West Alexandria, Ohio
Current Conditions -  °F | °C
As of 9:35 PM on Wednesday 17 Dec 2014 (Local Time) from KMWO Reporting Station
Overcast Overcast  
Wind Chill: 20°   Ceiling: 1600
Heat Index: 29°   Visibility: 10mi
Dew Point: 22°   Wind: 12mph
Humidity: 73%   Direction: 320°NW
Pressure: 30.29"   Gusts: NA
Location:  39.74°N, 84.53°W
Report Text: KMWO 180235Z AUTO 32010KT 10SM OVC016 M01/M06 A3029 RMK AO2 T10151058
Loading
Personal Weather Stations






























Interactive Weather Map New forecast layout! Learn more

10-Day Weather Forecast

Advertisements
Track Severe Weather on mobile